createdAt,value
2017-11-16T00:00:55.489Z,147.6
2017-11-16T00:10:55.718Z,144.9
2017-11-16T00:20:55.581Z,189.7
2017-11-16T00:30:55.539Z,174.8
2017-11-16T00:40:55.286Z,198.7
2017-11-16T00:50:54.998Z,179.8
2017-11-16T01:00:55.148Z,165.8
2017-11-16T01:10:54.894Z,177.5
2017-11-16T01:20:55.294Z,178.2
2017-11-16T01:30:55.035Z,189.2
2017-11-16T01:40:54.804Z,189.0
2017-11-16T01:50:55.735Z,180.7
2017-11-16T02:00:55.911Z,185.9
2017-11-16T02:10:55.662Z,179.9
2017-11-16T02:20:55.549Z,165.8
2017-11-16T02:30:55.321Z,193.0
2017-11-16T02:40:55.022Z,207.3
2017-11-16T02:50:55.091Z,184.1
2017-11-16T03:00:54.790Z,170.9
2017-11-16T03:10:56.015Z,148.1
2017-11-16T03:20:55.826Z,139.3
2017-11-16T03:30:55.569Z,140.0
2017-11-16T03:40:55.528Z,135.7
2017-11-16T03:50:55.324Z,135.5
2017-11-16T04:00:55.790Z,134.3
2017-11-16T04:10:55.792Z,132.3
2017-11-16T04:20:55.659Z,117.7
2017-11-16T04:30:55.395Z,128.1
2017-11-16T04:40:55.276Z,114.7
2017-11-16T04:50:55.408Z,145.4
2017-11-16T05:00:55.142Z,160.2
2017-11-16T05:10:55.621Z,168.7
2017-11-16T05:20:55.519Z,177.3
2017-11-16T05:30:55.045Z,174.5
2017-11-16T05:40:54.927Z,162.0
2017-11-16T05:50:56.200Z,170.8
2017-11-16T06:00:55.189Z,157.9
2017-11-16T06:10:54.890Z,133.1
2017-11-16T06:20:54.722Z,159.4
2017-11-16T06:30:55.453Z,128.0
2017-11-16T06:40:55.171Z,148.7
2017-11-16T06:50:55.290Z,140.9
2017-11-16T07:00:55.044Z,133.4
2017-11-16T07:10:55.029Z,119.5
2017-11-16T07:20:55.118Z,118.3
2017-11-16T07:30:54.921Z,120.6
2017-11-16T07:40:55.653Z,140.7
2017-11-16T07:50:55.397Z,131.6
2017-11-16T08:00:55.172Z,134.2
2017-11-16T08:10:54.978Z,142.1
2017-11-16T08:20:55.366Z,145.2
2017-11-16T08:30:55.144Z,131.2
2017-11-16T08:40:55.429Z,130.4
2017-11-16T08:50:55.478Z,117.6
2017-11-16T09:00:55.733Z,128.8
2017-11-16T09:10:55.502Z,71.9
2017-11-16T09:20:55.478Z,56.0
2017-11-16T09:30:55.273Z,58.3
2017-11-16T09:40:55.714Z,59.2
2017-11-16T09:50:55.676Z,72.1
2017-11-16T10:00:55.914Z,69.4
2017-11-16T10:10:56.006Z,40.7
2017-11-16T10:20:54.900Z,26.0
2017-11-16T10:30:55.870Z,20.5
2017-11-16T10:40:55.640Z,30.0
2017-11-16T10:50:55.802Z,26.6
2017-11-16T11:00:56.349Z,25.4
2017-11-16T11:10:55.663Z,30.9
2017-11-16T11:20:55.558Z,21.3
2017-11-16T11:30:55.770Z,24.3
2017-11-16T11:40:55.786Z,27.2
2017-11-16T11:50:55.547Z,17.4
2017-11-16T12:00:55.938Z,16.0
2017-11-16T12:10:56.108Z,17.7
2017-11-16T12:20:54.987Z,18.7
2017-11-16T12:30:54.768Z,11.5
2017-11-16T12:40:56.175Z,12.2
2017-11-16T12:50:54.953Z,10.6
2017-11-16T13:00:56.095Z,8.1
2017-11-16T13:10:55.578Z,9.7
2017-11-16T13:20:55.712Z,16.3
2017-11-16T13:30:55.476Z,12.7
2017-11-16T13:40:55.732Z,8.5
2017-11-16T13:50:55.434Z,11.2
2017-11-16T14:00:55.125Z,13.0
2017-11-16T14:10:54.867Z,15.6
2017-11-16T14:20:54.912Z,13.4
2017-11-16T14:30:55.702Z,15.5
2017-11-16T14:40:55.665Z,21.2
2017-11-16T14:50:55.344Z,32.8
2017-11-16T15:00:55.076Z,31.0
2017-11-16T15:10:54.828Z,36.6
2017-11-16T15:20:55.714Z,39.9
2017-11-16T15:30:55.837Z,38.3
2017-11-16T15:40:55.504Z,39.5
2017-11-16T15:50:55.622Z,48.3
2017-11-16T16:00:55.372Z,65.5
2017-11-16T16:10:55.120Z,76.4
2017-11-16T16:20:55.297Z,84.3
2017-11-16T16:30:55.056Z,85.4
2017-11-16T16:40:54.794Z,85.9
2017-11-16T16:50:55.635Z,82.7
2017-11-16T17:00:55.814Z,90.2
2017-11-16T17:10:55.619Z,78.5
2017-11-16T17:20:55.473Z,84.5
2017-11-16T17:30:55.222Z,88.6
2017-11-16T17:40:55.431Z,83.3
2017-11-16T17:50:55.600Z,92.3
2017-11-16T18:00:55.623Z,97.6
2017-11-16T18:10:55.636Z,100.1
2017-11-16T18:20:55.721Z,93.7
2017-11-16T18:30:56.517Z,119.0
2017-11-16T18:40:55.513Z,110.8
2017-11-16T18:50:55.281Z,109.8
2017-11-16T19:00:55.073Z,121.7
2017-11-16T19:10:55.284Z,118.4
2017-11-16T19:20:55.534Z,129.5
2017-11-16T19:30:55.472Z,136.6
2017-11-16T19:40:55.885Z,144.3
2017-11-16T19:50:55.851Z,127.1
2017-11-16T20:00:55.880Z,119.9
2017-11-16T20:10:55.692Z,129.6
2017-11-16T20:20:55.998Z,116.9
2017-11-16T20:30:55.294Z,120.4
2017-11-16T20:40:55.253Z,112.0
2017-11-16T20:50:55.195Z,109.2
2017-11-16T21:00:54.895Z,96.3
2017-11-16T21:10:55.666Z,89.7
2017-11-16T21:20:55.573Z,92.6
2017-11-16T21:30:55.752Z,86.3
2017-11-16T21:40:55.460Z,91.4
2017-11-16T21:50:55.185Z,94.7
2017-11-16T22:00:54.936Z,80.9
2017-11-16T22:10:55.663Z,88.4
2017-11-16T22:20:55.917Z,96.6
2017-11-16T22:30:55.666Z,92.2
2017-11-16T22:40:55.448Z,93.7
2017-11-16T22:50:55.555Z,100.6
2017-11-16T23:00:55.467Z,92.6
2017-11-16T23:10:55.461Z,91.8
2017-11-16T23:20:55.722Z,86.5
2017-11-16T23:30:55.930Z,82.7
2017-11-16T23:40:55.719Z,91.0
2017-11-16T23:50:55.488Z,95.8
